Time;durP1;ratioP1;P1;durP2;ratioP2;P2;SDS_P1;SDS_P2;PMS_P1;PMS_P2;Temp;Humidity;BMP_temperature;BMP_pressure;BME280_temperature;BME280_humidity;BME280_pressure;Samples;Min_cycle;Max_cycle;Signal;HPM_P1;HPM_P2
2021/12/22 00:01:09;;;;;;;58.35;18.05;;;;;;;-2.84;75.48;101375.03;4435694;32;20092;-66
2021/12/22 00:03:36;;;;;;;44.35;15.55;;;;;;;-2.74;74.89;101367.00;4435751;32;20105;-66
2021/12/22 00:06:04;;;;;;;47.15;15.65;;;;;;;-2.71;74.74;101368.87;4435765;31;20073;-66
2021/12/22 00:08:31;;;;;;;56.13;17.48;;;;;;;-2.70;74.44;101368.06;4421550;32;20085;-66
2021/12/22 00:11:01;;;;;;;54.70;17.02;;;;;;;-2.67;74.19;101373.41;4435789;32;20127;-66
2021/12/22 00:13:30;;;;;;;45.45;15.35;;;;;;;-2.95;75.34;101371.81;4435735;31;20127;-66
2021/12/22 00:15:57;;;;;;;41.67;15.90;;;;;;;-3.10;76.28;101377.78;4435791;32;20223;-66
2021/12/22 00:18:24;;;;;;;66.65;19.05;;;;;;;-3.33;77.76;101378.97;4435701;31;20109;-66
2021/12/22 00:20:51;;;;;;;60.67;19.02;;;;;;;-3.56;78.89;101375.03;4435586;32;20167;-65
2021/12/22 00:23:18;;;;;;;49.65;15.70;;;;;;;-3.91;81.40;101400.38;4435583;32;20142;-65
2021/12/22 00:25:46;;;;;;;45.30;15.20;;;;;;;-4.11;81.66;101413.69;4435519;31;20111;-66
2021/12/22 00:28:13;;;;;;;46.15;17.42;;;;;;;-4.07;80.80;101410.50;4435592;32;20133;-66
2021/12/22 00:30:41;;;;;;;39.92;15.55;;;;;;;-4.08;80.17;101416.47;4435469;32;20495;-66
2021/12/22 00:33:10;;;;;;;39.40;14.93;;;;;;;-3.99;79.69;101424.78;4435505;32;20133;-66
2021/12/22 00:35:44;;;;;;;38.63;14.90;;;;;;;-3.89;79.12;101426.22;4435478;32;20136;-66
2021/12/22 00:38:14;;;;;;;36.38;14.43;;;;;;;-3.67;79.08;101428.47;4435596;32;20089;-66
2021/12/22 00:40:43;;;;;;;45.12;15.25;;;;;;;-3.96;80.89;101426.63;4435249;32;20086;-66
2021/12/22 00:43:13;;;;;;;38.60;13.50;;;;;;;-3.94;81.57;101428.50;4435664;32;20120;-66
2021/12/22 00:45:41;;;;;;;45.17;16.17;;;;;;;-3.94;80.95;101433.66;4435269;32;20157;-66
2021/12/22 00:48:11;;;;;;;36.88;14.85;;;;;;;-3.88;79.72;101433.16;4435479;32;20097;-66
2021/12/22 00:50:39;;;;;;;49.13;14.60;;;;;;;-3.78;79.28;101432.03;4435197;32;20143;-66
2021/12/22 00:53:07;;;;;;;43.70;16.15;;;;;;;-3.70;78.83;101433.44;4435176;32;20154;-66
2021/12/22 00:55:34;;;;;;;43.47;15.40;;;;;;;-3.76;78.74;101435.62;4435158;32;20524;-66
2021/12/22 00:58:03;;;;;;;37.28;15.85;;;;;;;-3.71;79.07;101436.78;4435111;32;20380;-66
2021/12/22 01:00:34;;;;;;;38.63;13.57;;;;;;;-3.70;78.42;101439.47;4435155;32;20093;-66
2021/12/22 01:03:02;;;;;;;47.30;14.52;;;;;;;-3.55;77.57;101439.53;4435836;32;20127;-66
2021/12/22 01:05:30;;;;;;;44.90;17.02;;;;;;;-3.80;79.57;101441.38;4437514;32;20556;-66
2021/12/22 01:07:57;;;;;;;41.67;15.52;;;;;;;-3.77;79.33;101451.88;4437491;32;20119;-66
2021/12/22 01:10:28;;;;;;;38.00;14.90;;;;;;;-3.54;77.79;101451.59;4437509;32;20452;-66
2021/12/22 01:12:59;;;;;;;33.90;13.32;;;;;;;-3.47;77.74;101460.59;4437518;32;20135;-66
2021/12/22 01:15:28;;;;;;;38.53;14.48;;;;;;;-3.82;80.54;101450.66;4437368;32;20153;-66
2021/12/22 01:18:17;;;;;;;35.15;13.82;;;;;;;-3.81;80.10;101460.19;4437390;31;20089;-66
2021/12/22 01:23:22;;;;;;;35.15;14.02;;;;;;;-3.76;79.37;101459.69;4437579;32;20424;-66
2021/12/22 01:25:50;;;;;;;29.80;13.85;;;;;;;-3.63;78.86;101461.34;4437417;32;20112;-66
2021/12/22 01:28:18;;;;;;;35.33;14.18;;;;;;;-3.63;78.63;101451.94;4437164;31;20089;-66
2021/12/22 01:30:48;;;;;;;35.38;13.90;;;;;;;-3.62;78.64;101455.38;4437196;31;20097;-66
2021/12/22 01:33:17;;;;;;;41.58;14.52;;;;;;;-3.66;78.74;101458.56;4437208;32;20127;-65
2021/12/22 01:35:45;;;;;;;37.85;15.00;;;;;;;-3.78;79.54;101450.06;4437422;32;20081;-66
2021/12/22 01:38:13;;;;;;;42.33;14.20;;;;;;;-3.80;79.32;101455.13;4437407;32;20107;-66
2021/12/22 01:40:44;;;;;;;37.35;13.18;;;;;;;-3.82;79.63;101455.81;4437152;31;20495;-66
2021/12/22 01:43:14;;;;;;;35.13;14.02;;;;;;;-3.62;78.44;101457.97;4437165;32;20105;-66
2021/12/22 01:51:56;;;;;;;40.10;14.97;;;;;;;-3.63;78.38;101461.34;4437058;32;20081;-66
2021/12/22 01:54:27;;;;;;;34.30;14.50;;;;;;;-3.64;78.20;101459.53;4437357;32;20139;-66
2021/12/22 01:57:01;;;;;;;34.55;14.32;;;;;;;-3.73;78.60;101457.28;4437186;32;20160;-66
2021/12/22 01:59:30;;;;;;;41.20;15.45;;;;;;;-3.70;78.41;101454.91;4437367;32;20107;-66
2021/12/22 02:02:01;;;;;;;41.05;14.65;;;;;;;-3.72;78.67;101453.03;4437088;32;20122;-66
2021/12/22 02:04:30;;;;;;;37.10;14.20;;;;;;;-3.71;78.71;101458.28;4436918;31;20161;-66
2021/12/22 02:06:57;;;;;;;35.55;13.55;;;;;;;-3.89;79.53;101462.25;4436916;32;20077;-66
2021/12/22 02:12:13;;;;;;;28.62;12.65;;;;;;;-3.63;78.88;101462.22;4436944;32;20464;-66
2021/12/22 02:14:41;;;;;;;35.67;12.50;;;;;;;-3.48;78.58;101459.72;4436608;32;20119;-66
2021/12/22 02:17:10;;;;;;;31.87;12.70;;;;;;;-3.92;82.80;101468.13;4437025;32;20107;-65
2021/12/22 02:19:48;;;;;;;29.17;12.37;;;;;;;-3.86;82.33;101463.34;4436844;32;20123;-65
2021/12/22 02:22:17;;;;;;;28.83;11.95;;;;;;;-3.57;80.23;101464.28;4436860;32;20123;-66
2021/12/22 02:24:51;;;;;;;24.08;11.20;;;;;;;-3.43;79.41;101457.41;4436955;32;20109;-66
2021/12/22 02:27:28;;;;;;;27.27;11.30;;;;;;;-3.32;78.80;101453.81;4436828;32;20507;-66
2021/12/22 02:30:02;;;;;;;24.60;9.85;;;;;;;-3.41;80.16;101454.13;4436491;32;20081;-66
2021/12/22 02:35:27;;;;;;;31.02;10.32;;;;;;;-3.31;79.54;101453.03;4436867;32;20192;-66
2021/12/22 02:37:54;;;;;;;21.87;10.07;;;;;;;-3.38;80.26;101461.16;4436673;32;20412;-66
2021/12/22 02:40:26;;;;;;;18.35;8.43;;;;;;;-3.21;79.18;101459.63;4436682;31;20153;-66
2021/12/22 02:43:04;;;;;;;21.17;8.60;;;;;;;-3.11;78.16;101454.19;4436827;32;20081;-66
2021/12/22 02:45:34;;;;;;;22.75;8.80;;;;;;;-3.02;77.96;101457.34;4436795;32;20081;-66
2021/12/22 02:48:05;;;;;;;21.60;8.07;;;;;;;-3.03;78.70;101447.84;4436567;32;20449;-66
2021/12/22 02:50:36;;;;;;;16.55;7.50;;;;;;;-2.93;78.20;101449.28;4436775;32;20081;-66
2021/12/22 02:53:07;;;;;;;22.10;7.85;;;;;;;-2.92;78.16;101454.53;4436569;32;20097;-66
2021/12/22 03:06:32;;;;;;;16.90;7.18;;;;;;;-2.84;77.29;101459.25;4436373;31;20144;-66
2021/12/22 03:09:00;;;;;;;16.92;7.53;;;;;;;-2.61;76.10;101468.34;4436688;32;20077;-66
2021/12/22 03:11:28;;;;;;;19.45;7.82;;;;;;;-2.73;76.69;101465.91;4436633;32;20101;-66
2021/12/22 03:13:57;;;;;;;18.30;7.32;;;;;;;-2.82;77.35;101478.28;4436311;31;20113;-66
2021/12/22 03:16:26;;;;;;;16.70;6.87;;;;;;;-2.75;77.02;101475.28;4436520;31;20097;-66
2021/12/22 03:18:54;;;;;;;15.02;7.07;;;;;;;-2.69;76.56;101468.75;4436264;31;20077;-66
2021/12/22 03:21:22;;;;;;;12.93;6.65;;;;;;;-2.68;77.28;101472.25;4436366;32;20097;-66
2021/12/22 03:23:52;;;;;;;17.30;6.93;;;;;;;-2.65;77.06;101475.91;4436133;31;20101;-66
2021/12/22 03:26:22;;;;;;;15.25;6.87;;;;;;;-2.80;78.17;101474.97;4435478;32;20156;-66
2021/12/22 03:28:51;;;;;;;14.68;6.05;;;;;;;-2.78;77.98;101470.81;4436046;32;20448;-66
2021/12/22 03:31:18;;;;;;;15.77;6.18;;;;;;;-2.67;77.47;101469.75;4436283;32;20081;-66
2021/12/22 03:33:47;;;;;;;11.50;5.75;;;;;;;-2.64;77.11;101471.63;4436093;32;20097;-66
2021/12/22 03:36:18;;;;;;;14.48;7.20;;;;;;;-2.45;75.98;101476.16;4436186;32;20220;-66
2021/12/22 03:38:47;;;;;;;17.40;5.87;;;;;;;-2.44;75.27;101484.00;4436251;31;20474;-66
2021/12/22 03:41:15;;;;;;;12.27;6.07;;;;;;;-2.53;76.10;101473.13;4421509;32;20582;-66
2021/12/22 03:43:42;;;;;;;14.15;6.40;;;;;;;-2.53;75.98;101473.13;4421667;32;20093;-66
2021/12/22 03:46:09;;;;;;;12.95;5.35;;;;;;;-2.70;77.03;101476.41;4436052;32;20512;-66
2021/12/22 03:48:37;;;;;;;11.60;5.85;;;;;;;-2.51;75.83;101480.94;4435926;31;20100;-66
2021/12/22 03:51:04;;;;;;;14.80;7.25;;;;;;;-2.47;75.56;101477.78;4436051;32;20136;-66
2021/12/22 03:53:31;;;;;;;11.90;6.28;;;;;;;-2.51;76.19;101486.12;4436016;32;20097;-66
2021/12/22 03:55:59;;;;;;;13.13;6.93;;;;;;;-2.52;75.59;101492.09;4436019;31;20458;-66
2021/12/22 03:58:26;;;;;;;16.67;6.47;;;;;;;-2.60;75.91;101489.06;4435897;32;20100;-66
2021/12/22 04:00:55;;;;;;;13.43;5.70;;;;;;;-2.60;75.73;101483.91;4435990;31;20124;-66
2021/12/22 04:03:28;;;;;;;9.85;4.85;;;;;;;-2.61;75.74;101489.00;4435868;32;20384;-66
2021/12/22 04:05:56;;;;;;;14.75;6.78;;;;;;;-2.62;75.99;101489.75;4435917;32;20096;-66
2021/12/22 04:08:23;;;;;;;15.60;5.72;;;;;;;-2.63;75.81;101488.88;4435807;31;20110;-66
2021/12/22 04:10:50;;;;;;;9.75;5.20;;;;;;;-2.84;76.83;101485.03;4435805;31;20093;-66
2021/12/22 04:13:19;;;;;;;9.10;4.95;;;;;;;-2.78;76.34;101491.44;4435876;31;20164;-66
2021/12/22 04:15:48;;;;;;;10.27;5.15;;;;;;;-2.88;77.45;101496.84;4435759;32;20119;-66
2021/12/22 04:18:17;;;;;;;8.15;5.03;;;;;;;-2.81;77.00;101492.97;4435651;32;20105;-66
2021/12/22 04:20:44;;;;;;;10.68;5.60;;;;;;;-2.83;77.31;101491.97;4435748;32;20124;-66
2021/12/22 04:23:12;;;;;;;15.20;5.68;;;;;;;-2.78;77.78;101495.72;4435595;31;20120;-66
2021/12/22 04:25:39;;;;;;;12.90;5.87;;;;;;;-2.71;77.04;101498.75;4435674;32;20097;-66
2021/12/22 04:28:09;;;;;;;14.55;6.37;;;;;;;-2.61;76.36;101505.34;4435650;31;20953;-66
2021/12/22 04:30:42;;;;;;;16.48;7.35;;;;;;;-2.51;75.81;101517.09;4435504;32;20123;-66
2021/12/22 04:33:09;;;;;;;18.00;6.80;;;;;;;-2.43;75.67;101513.28;4435573;32;20089;-66
2021/12/22 04:35:37;;;;;;;11.80;6.55;;;;;;;-2.34;75.36;101515.50;4435669;32;20409;-66
2021/12/22 04:38:04;;;;;;;14.27;6.50;;;;;;;-2.29;75.39;101511.50;4437098;32;20141;-66
2021/12/22 04:40:34;;;;;;;11.82;6.22;;;;;;;-2.25;75.11;101516.03;4437812;32;20456;-66
2021/12/22 04:43:02;;;;;;;12.30;6.32;;;;;;;-2.47;75.75;101517.38;4437825;31;20093;-66
2021/12/22 04:45:35;;;;;;;13.40;6.45;;;;;;;-2.65;76.94;101517.19;4437727;32;20762;-66
2021/12/22 04:48:03;;;;;;;12.05;5.90;;;;;;;-2.56;77.02;101508.19;4423409;32;20192;-66
2021/12/22 04:50:32;;;;;;;11.20;5.90;;;;;;;-2.53;76.78;101517.00;4437645;32;20176;-66
2021/12/22 04:53:06;;;;;;;13.77;6.30;;;;;;;-2.53;77.11;101510.97;4437801;32;20097;-66
2021/12/22 04:55:33;;;;;;;13.18;6.05;;;;;;;-2.51;77.27;101507.69;4437682;32;20101;-66
2021/12/22 04:58:01;;;;;;;15.18;5.55;;;;;;;-2.47;76.94;101506.16;4437757;32;20115;-66
2021/12/22 05:00:30;;;;;;;11.65;5.28;;;;;;;-2.49;77.18;101510.34;4435031;32;20097;-66
2021/12/22 05:02:59;;;;;;;14.18;6.80;;;;;;;-2.38;76.57;101508.37;4437528;32;20184;-66
2021/12/22 05:05:27;;;;;;;25.33;7.00;;;;;;;-2.47;77.09;101501.91;4437478;31;20545;-66
2021/12/22 05:07:57;;;;;;;13.73;5.90;;;;;;;-2.36;76.46;101502.50;4437542;32;20072;-66
2021/12/22 05:10:26;;;;;;;10.40;5.12;;;;;;;-2.38;76.03;101505.81;4437442;31;20532;-66
2021/12/22 05:12:54;;;;;;;9.32;5.00;;;;;;;-2.51;76.99;101506.75;4437435;31;20396;-65
2021/12/22 05:15:23;;;;;;;13.57;5.30;;;;;;;-2.41;76.63;101509.97;4437634;32;20131;-66
2021/12/22 05:20:23;;;;;;;17.12;7.18;;;;;;;-2.41;76.68;101515.13;4437535;32;20127;-66
2021/12/22 05:22:51;;;;;;;14.45;6.15;;;;;;;-2.32;75.86;101519.06;4437292;31;20121;-66
2021/12/22 05:25:19;;;;;;;14.77;6.47;;;;;;;-2.43;76.77;101524.50;4437328;31;20147;-66
2021/12/22 05:27:49;;;;;;;15.00;6.32;;;;;;;-2.42;76.65;101518.53;4430539;32;20137;-66
2021/12/22 05:30:17;;;;;;;15.13;7.28;;;;;;;-2.55;77.50;101521.16;4427528;32;20168;-66
2021/12/22 05:32:47;;;;;;;19.87;7.87;;;;;;;-2.50;77.79;101524.03;4437368;32;20078;-66
2021/12/22 05:35:14;;;;;;;18.05;7.20;;;;;;;-2.55;77.80;101530.59;4437352;32;20085;-66
2021/12/22 05:37:42;;;;;;;19.17;7.95;;;;;;;-2.56;77.95;101523.69;4437137;32;20253;-66
2021/12/22 05:40:09;;;;;;;16.50;7.82;;;;;;;-2.40;77.60;101534.13;4436551;31;20457;-66
2021/12/22 05:42:37;;;;;;;17.25;7.25;;;;;;;-2.32;76.96;101535.44;4433142;32;20449;-66
2021/12/22 05:45:05;;;;;;;18.17;8.07;;;;;;;-2.22;76.38;101534.28;4429322;31;20580;-66
2021/12/22 05:47:32;;;;;;;16.02;7.03;;;;;;;-2.15;76.15;101540.72;4421991;32;20090;-65
2021/12/22 05:50:03;;;;;;;14.57;7.50;;;;;;;-2.12;75.71;101536.59;4421507;32;20093;-65
2021/12/22 05:52:30;;;;;;;13.77;6.80;;;;;;;-2.14;75.82;101542.47;4421644;32;20102;-66
2021/12/22 05:54:57;;;;;;;14.45;6.50;;;;;;;-2.29;76.28;101550.22;4435850;32;20169;-66
2021/12/22 05:57:24;;;;;;;15.70;6.97;;;;;;;-2.34;76.41;101542.19;4432741;32;20156;-66
2021/12/22 05:59:53;;;;;;;13.62;6.62;;;;;;;-2.35;76.40;101544.69;4421643;32;20173;-66
2021/12/22 06:02:20;;;;;;;17.20;6.87;;;;;;;-2.37;76.49;101541.13;4421967;32;20101;-66
2021/12/22 06:04:51;;;;;;;16.50;7.95;;;;;;;-2.47;77.07;101547.47;4421873;32;20201;-66
2021/12/22 06:07:18;;;;;;;16.17;8.30;;;;;;;-2.51;77.60;101546.38;4421848;32;20077;-66
2021/12/22 06:09:45;;;;;;;23.38;10.02;;;;;;;-2.46;77.19;101551.81;4421471;32;20094;-66
2021/12/22 06:12:12;;;;;;;25.55;10.73;;;;;;;-2.37;76.60;101557.50;4421590;32;20093;-66
2021/12/22 06:14:40;;;;;;;25.42;10.85;;;;;;;-2.29;76.37;101557.97;4422935;32;20089;-66
2021/12/22 06:17:07;;;;;;;25.17;10.85;;;;;;;-2.37;76.86;101566.94;4430919;32;20085;-66
2021/12/22 06:19:36;;;;;;;24.05;11.50;;;;;;;-2.42;76.67;101566.66;4421744;32;20085;-66
2021/12/22 06:22:05;;;;;;;27.77;12.50;;;;;;;-2.50;77.15;101567.91;4421475;32;20106;-66
2021/12/22 06:24:32;;;;;;;26.62;11.07;;;;;;;-2.40;76.46;101575.41;4421260;32;20089;-66
2021/12/22 06:26:59;;;;;;;21.65;9.07;;;;;;;-2.42;76.41;101579.56;4421660;32;20192;-66
2021/12/22 06:29:29;;;;;;;18.42;8.32;;;;;;;-2.42;76.35;101579.56;4429971;32;20353;-66
2021/12/22 06:31:56;;;;;;;10.25;6.15;;;;;;;-2.45;76.37;101577.69;4429363;32;20101;-66
2021/12/22 06:34:25;;;;;;;20.30;9.63;;;;;;;-2.50;77.12;101580.81;4421528;32;20127;-66
2021/12/22 06:36:52;;;;;;;21.55;9.45;;;;;;;-2.46;76.61;101587.94;4421519;32;20081;-66
2021/12/22 06:39:20;;;;;;;17.83;8.73;;;;;;;-2.42;76.60;101589.91;4422670;32;21979;-66
2021/12/22 06:41:47;;;;;;;17.12;7.70;;;;;;;-2.37;75.83;101588.47;4436323;32;20202;-66
2021/12/22 06:44:15;;;;;;;15.52;8.30;;;;;;;-2.30;75.54;101590.63;4430097;32;20468;-66
2021/12/22 06:46:42;;;;;;;17.67;7.20;;;;;;;-2.14;74.95;101600.16;4430734;31;20432;-67
2021/12/22 06:49:11;;;;;;;13.30;7.43;;;;;;;-2.31;75.99;101601.75;4421253;32;20090;-66
2021/12/22 06:51:41;;;;;;;22.60;8.50;;;;;;;-2.35;76.42;101604.94;4422909;32;20468;-66
2021/12/22 06:54:10;;;;;;;20.40;8.32;;;;;;;-2.20;75.75;101615.28;4428066;32;20094;-66
2021/12/22 06:56:38;;;;;;;15.25;7.53;;;;;;;-2.10;75.25;101615.03;4422220;32;20156;-66
2021/12/22 06:59:05;;;;;;;18.73;7.85;;;;;;;-2.12;75.25;101611.50;4430125;32;20140;-66
2021/12/22 07:01:34;;;;;;;25.33;9.43;;;;;;;-2.21;75.92;101616.09;4419954;32;20090;-66
2021/12/22 07:04:03;;;;;;;35.40;11.43;;;;;;;-2.18;76.21;101616.28;4421079;32;20185;-66
2021/12/22 07:06:31;;;;;;;27.10;11.07;;;;;;;-2.05;75.59;101618.78;4421135;32;20647;-67
2021/12/22 07:08:59;;;;;;;20.00;9.57;;;;;;;-2.10;75.72;101625.38;4421214;32;20112;-66
2021/12/22 07:11:26;;;;;;;24.00;10.40;;;;;;;-2.07;75.64;101629.81;4421227;32;20090;-66
2021/12/22 07:13:54;;;;;;;23.05;10.93;;;;;;;-2.19;76.35;101625.72;4420909;32;20527;-66
2021/12/22 07:16:21;;;;;;;31.83;14.50;;;;;;;-2.12;76.27;101629.56;4421139;32;20111;-66
2021/12/22 07:18:52;;;;;;;32.80;14.75;;;;;;;-2.00;75.78;101625.09;4416775;32;20080;-66
2021/12/22 07:21:19;;;;;;;29.08;13.93;;;;;;;-2.02;75.95;101624.13;4423539;32;20455;-66
2021/12/22 07:23:46;;;;;;;30.80;13.88;;;;;;;-2.01;75.95;101628.50;4421278;32;20176;-66
2021/12/22 07:26:14;;;;;;;33.67;12.65;;;;;;;-1.89;75.26;101632.59;4421343;32;20440;-67
2021/12/22 07:28:46;;;;;;;24.20;11.02;;;;;;;-1.97;75.32;101630.47;4420638;32;20123;-66
2021/12/22 07:31:16;;;;;;;29.60;12.20;;;;;;;-2.00;75.18;101632.84;4405754;32;20102;-66
2021/12/22 07:33:52;;;;;;;30.62;14.00;;;;;;;-1.93;75.50;101631.53;4406455;32;20181;-66
2021/12/22 07:36:19;;;;;;;30.23;12.18;;;;;;;-1.83;75.42;101635.53;4421776;32;20088;-66
2021/12/22 07:38:52;;;;;;;25.58;11.98;;;;;;;-1.80;75.47;101634.03;4424281;32;20116;-66
2021/12/22 07:41:19;;;;;;;29.10;12.27;;;;;;;-1.86;76.02;101635.38;4427452;32;20156;-66
2021/12/22 07:43:46;;;;;;;31.27;13.20;;;;;;;-1.88;76.37;101631.78;4436159;31;20517;-66
2021/12/22 07:46:14;;;;;;;22.15;9.45;;;;;;;-1.85;76.13;101631.97;4436057;31;20470;-66
2021/12/22 07:48:41;;;;;;;23.92;10.60;;;;;;;-1.81;76.15;101632.22;4427754;32;20202;-68
2021/12/22 07:51:08;;;;;;;23.15;11.35;;;;;;;-1.60;74.76;101642.91;4420613;32;20125;-66
2021/12/22 07:53:36;;;;;;;28.33;11.98;;;;;;;-1.53;74.27;101647.63;4420423;32;20106;-66
2021/12/22 07:56:03;;;;;;;26.83;11.35;;;;;;;-1.22;72.69;101651.94;4420932;32;20136;-66
2021/12/22 07:58:30;;;;;;;12.43;7.12;;;;;;;-1.11;71.92;101648.25;4421012;32;20094;-66
2021/12/22 08:00:59;;;;;;;14.87;7.22;;;;;;;-1.31;71.79;101654.94;4420632;32;20632;-66
2021/12/22 08:03:27;;;;;;;14.32;6.87;;;;;;;-1.33;71.91;101650.47;4420768;32;20094;-66
2021/12/22 08:06:13;;;;;;;16.50;8.15;;;;;;;-1.26;71.97;101658.66;4420496;32;20521;-67
2021/12/22 08:08:41;;;;;;;16.23;7.12;;;;;;;-1.16;71.99;101660.06;4420456;32;20160;-66
2021/12/22 08:11:08;;;;;;;17.65;8.35;;;;;;;-1.05;71.77;101668.41;4420062;32;20082;-68
2021/12/22 08:13:38;;;;;;;15.20;7.65;;;;;;;-0.84;70.99;101677.34;4420285;32;20433;-66
2021/12/22 08:16:06;;;;;;;24.98;10.65;;;;;;;-0.64;70.22;101665.47;4425557;32;20243;-67
2021/12/22 08:18:33;;;;;;;18.98;9.15;;;;;;;-0.56;69.90;101671.97;4435765;32;20596;-66
2021/12/22 08:21:00;;;;;;;15.18;8.45;;;;;;;-0.38;69.06;101668.59;4421420;32;20109;-66
2021/12/22 08:23:33;;;;;;;18.73;8.27;;;;;;;-0.34;69.22;101675.72;4430067;32;20173;-67
2021/12/22 08:26:00;;;;;;;21.20;9.40;;;;;;;-0.10;68.09;101676.09;4420283;32;20356;-68
2021/12/22 08:28:27;;;;;;;15.75;8.30;;;;;;;0.00;67.64;101675.78;4420324;32;20139;-68
2021/12/22 08:30:54;;;;;;;14.13;7.72;;;;;;;0.14;67.55;101676.44;4414188;32;20197;-67
2021/12/22 08:33:24;;;;;;;16.62;8.52;;;;;;;0.06;66.85;101681.25;4434495;32;20135;-68
2021/12/22 08:38:50;;;;;;;14.75;7.43;;;;;;;0.28;65.51;101674.56;4434887;32;20427;-68
2021/12/22 08:41:28;;;;;;;19.52;7.35;;;;;;;0.60;63.72;101682.25;4434502;32;20089;-68
2021/12/22 08:44:04;;;;;;;15.40;7.57;;;;;;;0.49;65.17;101680.81;4434939;32;20120;-68
2021/12/22 08:46:33;;;;;;;20.98;8.50;;;;;;;0.65;65.23;101690.25;4434264;32;20085;-68
2021/12/22 08:49:03;;;;;;;16.17;8.68;;;;;;;0.70;64.43;101693.94;4435383;32;20122;-68
2021/12/22 08:51:31;;;;;;;16.83;8.75;;;;;;;0.89;63.74;101696.66;4435096;32;20184;-68
2021/12/22 08:54:00;;;;;;;15.70;7.57;;;;;;;0.99;63.35;101707.44;4435130;31;20132;-67
2021/12/22 08:56:32;;;;;;;17.95;8.82;;;;;;;1.06;63.50;101702.66;4435273;32;20093;-67
2021/12/22 08:59:00;;;;;;;15.93;8.43;;;;;;;0.90;63.85;101706.19;4435316;32;20096;-68
2021/12/22 09:01:28;;;;;;;16.37;8.70;;;;;;;0.89;63.73;101700.94;4434649;32;20166;-67
2021/12/22 09:03:56;;;;;;;12.20;6.75;;;;;;;0.99;63.05;101697.97;4434808;31;20201;-68
2021/12/22 09:06:23;;;;;;;16.37;7.78;;;;;;;1.06;61.90;101705.25;4435096;31;20108;-67
2021/12/22 09:08:52;;;;;;;15.02;7.25;;;;;;;1.02;62.74;101705.88;4435092;31;20132;-67
2021/12/22 09:11:20;;;;;;;21.55;9.38;;;;;;;1.55;60.70;101698.84;4434677;32;20093;-68
2021/12/22 09:13:48;;;;;;;19.98;8.32;;;;;;;1.15;61.67;101695.28;4434762;32;20093;-67
2021/12/22 09:16:16;;;;;;;19.98;9.18;;;;;;;1.03;62.28;101699.03;4434588;32;20089;-68
2021/12/22 09:18:43;;;;;;;19.83;8.75;;;;;;;1.22;62.79;101691.28;4434855;32;20152;-68
2021/12/22 09:21:12;;;;;;;19.62;9.40;;;;;;;1.64;61.28;101692.34;4434901;31;20485;-67
2021/12/22 09:23:40;;;;;;;19.55;9.13;;;;;;;1.60;61.23;101703.44;4435261;32;20124;-67
2021/12/22 09:26:07;;;;;;;15.90;7.90;;;;;;;1.50;60.74;101696.03;4437522;32;20081;-67
2021/12/22 09:28:36;;;;;;;12.30;7.55;;;;;;;1.30;61.36;101695.09;4437102;32;20757;-67
2021/12/22 09:31:05;;;;;;;17.77;8.60;;;;;;;1.47;60.54;101693.28;4436549;32;20098;-67
2021/12/22 09:33:34;;;;;;;18.05;7.82;;;;;;;1.58;61.48;101701.56;4436818;32;20421;-67
2021/12/22 09:36:06;;;;;;;18.08;8.23;;;;;;;1.54;60.97;101699.66;4436830;32;20496;-66
2021/12/22 09:38:35;;;;;;;17.17;8.45;;;;;;;1.51;60.64;101708.19;4436853;32;20106;-66
2021/12/22 09:41:04;;;;;;;17.95;9.20;;;;;;;1.40;58.28;101707.69;4436126;32;20146;-67
2021/12/22 09:43:32;;;;;;;23.50;10.05;;;;;;;1.41;59.31;101709.50;4436604;32;20101;-67
2021/12/22 09:46:07;;;;;;;25.83;8.80;;;;;;;1.35;59.01;101705.72;4436552;32;20502;-67
2021/12/22 09:53:36;;;;;;;21.05;9.20;;;;;;;1.66;60.26;101695.00;4437233;32;20089;-67
2021/12/22 09:56:04;;;;;;;18.98;10.20;;;;;;;1.95;59.07;101690.25;4435644;32;20145;-67
2021/12/22 09:58:32;;;;;;;17.90;9.45;;;;;;;1.95;59.34;101687.66;4421174;32;20450;-67
2021/12/22 10:00:59;;;;;;;29.15;13.10;;;;;;;2.21;59.08;101689.66;4436728;32;20600;-67
2021/12/22 10:03:28;;;;;;;22.70;11.65;;;;;;;2.46;58.14;101683.78;4436506;32;20443;-67
2021/12/22 10:05:55;;;;;;;26.55;12.60;;;;;;;2.32;58.96;101688.38;4436810;32;20149;-67
2021/12/22 10:08:26;;;;;;;24.50;10.85;;;;;;;2.38;58.57;101680.84;4436689;32;20088;-67
2021/12/22 10:11:06;;;;;;;23.83;10.55;;;;;;;2.36;58.31;101682.50;4436193;32;20093;-67
2021/12/22 10:13:43;;;;;;;26.08;11.10;;;;;;;2.47;58.62;101685.53;4434765;32;20436;-67
2021/12/22 10:16:12;;;;;;;20.23;8.90;;;;;;;2.22;57.39;101677.53;4434791;32;20085;-67
2021/12/22 10:18:40;;;;;;;20.02;9.60;;;;;;;2.12;58.40;101682.34;4433625;32;20092;-67
2021/12/22 10:21:17;;;;;;;18.60;9.20;;;;;;;2.20;56.67;101679.19;4422102;32;20093;-66
2021/12/22 10:23:51;;;;;;;16.37;8.75;;;;;;;2.17;56.71;101679.94;4421273;32;20145;-67
2021/12/22 10:26:26;;;;;;;18.58;9.30;;;;;;;1.99;58.35;101677.44;4421549;32;20735;-67
2021/12/22 10:29:07;;;;;;;19.15;9.88;;;;;;;1.77;59.47;101680.81;4421364;32;20081;-64
2021/12/22 10:31:40;;;;;;;24.48;9.80;;;;;;;1.97;57.94;101679.06;4421890;32;20101;-65
2021/12/22 10:34:14;;;;;;;20.55;8.60;;;;;;;1.67;59.34;101682.09;4421859;32;20176;-64
2021/12/22 10:36:49;;;;;;;29.02;11.95;;;;;;;2.04;59.22;101675.03;4421942;32;20085;-64
2021/12/22 10:39:24;;;;;;;23.02;9.27;;;;;;;1.92;58.53;101673.69;4420559;32;20176;-65
2021/12/22 10:41:52;;;;;;;23.15;10.77;;;;;;;1.82;60.31;101675.81;4422119;32;20090;-65
2021/12/22 10:44:20;;;;;;;26.12;12.30;;;;;;;1.59;59.20;101679.97;4422172;32;20168;-64
2021/12/22 10:46:47;;;;;;;25.62;11.98;;;;;;;1.66;60.29;101685.53;4421704;32;20142;-64
2021/12/22 10:49:20;;;;;;;23.60;11.63;;;;;;;1.91;59.63;101671.03;4421704;32;20801;-64
2021/12/22 10:52:01;;;;;;;19.83;9.98;;;;;;;1.74;60.78;101678.06;4421811;32;20097;-64
2021/12/22 10:54:31;;;;;;;25.02;10.70;;;;;;;1.77;60.00;101667.81;4434852;32;20615;-65
2021/12/22 10:57:00;;;;;;;21.40;9.88;;;;;;;1.83;59.59;101670.66;4436517;32;20157;-65
2021/12/22 10:59:27;;;;;;;24.83;11.10;;;;;;;1.71;60.25;101667.53;4436475;31;20149;-65
2021/12/22 11:02:05;;;;;;;22.02;10.77;;;;;;;1.87;59.59;101671.69;4436397;31;20179;-64
2021/12/22 11:04:34;;;;;;;27.27;11.20;;;;;;;1.59;60.17;101666.97;4436519;32;20145;-64
2021/12/22 11:07:13;;;;;;;30.17;11.20;;;;;;;1.75;60.50;101668.56;4436519;32;20081;-64
2021/12/22 11:09:40;;;;;;;21.37;11.00;;;;;;;1.55;60.23;101671.13;4436117;32;20148;-64
2021/12/22 11:12:13;;;;;;;25.62;11.30;;;;;;;1.59;60.57;101657.50;4436233;32;20108;-65
2021/12/22 11:14:51;;;;;;;20.10;10.13;;;;;;;1.60;60.47;101666.19;4436071;32;20205;-65
2021/12/22 11:17:21;;;;;;;20.52;10.60;;;;;;;1.71;60.80;101662.34;4436262;32;20086;-64
2021/12/22 11:19:54;;;;;;;29.30;10.85;;;;;;;2.06;60.56;101663.00;4436503;32;20141;-64
2021/12/22 11:22:36;;;;;;;21.40;10.57;;;;;;;2.15;58.80;101656.47;4435990;32;20093;-68
2021/12/22 11:25:05;;;;;;;24.02;10.55;;;;;;;1.89;59.98;101657.06;4435200;32;20164;-65
2021/12/22 11:27:39;;;;;;;30.30;11.40;;;;;;;1.84;60.14;101651.69;4435662;32;20144;-65
2021/12/22 11:30:12;;;;;;;27.58;11.82;;;;;;;2.15;59.50;101645.19;4423223;32;20170;-65
2021/12/22 11:32:40;;;;;;;30.73;11.50;;;;;;;2.12;59.20;101645.97;4420838;32;20101;-64
2021/12/22 11:35:10;;;;;;;27.62;11.07;;;;;;;1.70;59.26;101637.19;4430415;32;20515;-65
2021/12/22 11:37:38;;;;;;;22.83;10.07;;;;;;;1.64;59.40;101640.37;4436164;32;20535;-64
2021/12/22 11:40:11;;;;;;;18.70;9.77;;;;;;;1.64;60.27;101636.91;4436903;31;20092;-64
2021/12/22 11:42:42;;;;;;;19.25;11.27;;;;;;;1.83;60.47;101641.19;4436643;32;20089;-67
2021/12/22 11:45:15;;;;;;;21.23;10.43;;;;;;;1.81;60.10;101632.47;4436315;31;20121;-65
2021/12/22 11:47:49;;;;;;;21.10;10.18;;;;;;;2.06;59.87;101630.09;4435855;32;20504;-65
2021/12/22 11:50:23;;;;;;;26.67;10.70;;;;;;;1.99;59.08;101630.66;4435864;32;20124;-64
2021/12/22 11:52:58;;;;;;;22.05;9.82;;;;;;;2.18;59.09;101634.91;4436230;32;20089;-64
2021/12/22 11:55:37;;;;;;;21.90;9.43;;;;;;;2.10;58.79;101631.09;4436043;32;20097;-64
2021/12/22 11:58:19;;;;;;;20.95;10.23;;;;;;;2.02;58.82;101625.59;4435401;32;20463;-64
2021/12/22 12:00:55;;;;;;;30.75;11.25;;;;;;;2.12;59.44;101622.56;4435155;32;20417;-64
2021/12/22 12:03:37;;;;;;;18.55;10.15;;;;;;;2.25;58.71;101615.25;4435873;32;20192;-64